sensor_id;sensor_type;location;lat;lon;timestamp;temperature;humidity
25753;DHT22;13600;50.816;4.416;2023-07-31T00:32:18;18.60;99.90
25753;DHT22;13600;50.816;4.416;2023-07-31T00:51:16;18.70;99.90
25753;DHT22;13600;50.816;4.416;2023-07-31T00:53:42;18.60;99.90
25753;DHT22;13600;50.816;4.416;2023-07-31T00:56:08;18.60;99.90
25753;DHT22;13600;50.816;4.416;2023-07-31T00:58:35;18.40;99.90
25753;DHT22;13600;50.816;4.416;2023-07-31T01:01:01;18.30;99.90
25753;DHT22;13600;50.816;4.416;2023-07-31T01:03:27;18.30;99.90
25753;DHT22;13600;50.816;4.416;2023-07-31T01:11:30;18.30;99.90
25753;DHT22;13600;50.816;4.416;2023-07-31T01:13:57;18.40;99.90
25753;DHT22;13600;50.816;4.416;2023-07-31T01:16:24;18.40;99.90
25753;DHT22;13600;50.816;4.416;2023-07-31T01:18:50;18.40;99.90
25753;DHT22;13600;50.816;4.416;2023-07-31T01:21:34;18.30;99.90
25753;DHT22;13600;50.816;4.416;2023-07-31T01:26:39;18.40;99.90
25753;DHT22;13600;50.816;4.416;2023-07-31T01:29:25;18.30;99.90
25753;DHT22;13600;50.816;4.416;2023-07-31T01:31:57;18.40;99.90
25753;DHT22;13600;50.816;4.416;2023-07-31T01:34:26;18.30;99.90
25753;DHT22;13600;50.816;4.416;2023-07-31T01:36:53;18.30;99.90
25753;DHT22;13600;50.816;4.416;2023-07-31T01:39:20;18.30;99.90
25753;DHT22;13600;50.816;4.416;2023-07-31T01:41:46;18.40;99.90
25753;DHT22;13600;50.816;4.416;2023-07-31T01:44:11;18.50;99.90
25753;DHT22;13600;50.816;4.416;2023-07-31T01:46:37;18.60;99.90
25753;DHT22;13600;50.816;4.416;2023-07-31T01:49:05;18.60;99.90
25753;DHT22;13600;50.816;4.416;2023-07-31T01:51:31;18.50;99.90
25753;DHT22;13600;50.816;4.416;2023-07-31T01:54:00;18.40;99.90
25753;DHT22;13600;50.816;4.416;2023-07-31T01:56:25;18.50;99.90
25753;DHT22;13600;50.816;4.416;2023-07-31T01:58:51;18.50;99.90
25753;DHT22;13600;50.816;4.416;2023-07-31T02:01:16;18.60;99.90
25753;DHT22;13600;50.816;4.416;2023-07-31T02:03:42;18.40;99.90
25753;DHT22;13600;50.816;4.416;2023-07-31T02:06:07;18.50;99.90
25753;DHT22;13600;50.816;4.416;2023-07-31T02:08:33;18.40;99.90
25753;DHT22;13600;50.816;4.416;2023-07-31T02:10:58;18.50;99.90
25753;DHT22;13600;50.816;4.416;2023-07-31T02:13:24;18.60;99.90
25753;DHT22;13600;50.816;4.416;2023-07-31T02:15:50;18.40;99.90
25753;DHT22;13600;50.816;4.416;2023-07-31T02:18:16;18.40;99.90
25753;DHT22;13600;50.816;4.416;2023-07-31T02:20:41;18.40;99.90
25753;DHT22;13600;50.816;4.416;2023-07-31T02:23:07;18.50;99.90
25753;DHT22;13600;50.816;4.416;2023-07-31T02:25:33;18.60;99.90
25753;DHT22;13600;50.816;4.416;2023-07-31T02:27:58;18.60;99.90
25753;DHT22;13600;50.816;4.416;2023-07-31T02:30:24;18.60;99.90
25753;DHT22;13600;50.816;4.416;2023-07-31T02:32:49;18.50;99.90
25753;DHT22;13600;50.816;4.416;2023-07-31T02:35:15;18.60;99.90
25753;DHT22;13600;50.816;4.416;2023-07-31T02:37:42;18.60;99.90
25753;DHT22;13600;50.816;4.416;2023-07-31T02:40:09;18.60;99.90
25753;DHT22;13600;50.816;4.416;2023-07-31T02:42:34;18.50;99.90
25753;DHT22;13600;50.816;4.416;2023-07-31T02:45:00;18.40;99.90
25753;DHT22;13600;50.816;4.416;2023-07-31T02:47:25;18.50;99.90
25753;DHT22;13600;50.816;4.416;2023-07-31T02:49:51;18.60;99.90
25753;DHT22;13600;50.816;4.416;2023-07-31T02:52:16;18.50;99.90
25753;DHT22;13600;50.816;4.416;2023-07-31T02:54:42;18.40;99.90
25753;DHT22;13600;50.816;4.416;2023-07-31T02:57:08;18.50;99.90
25753;DHT22;13600;50.816;4.416;2023-07-31T02:59:34;18.50;99.90
25753;DHT22;13600;50.816;4.416;2023-07-31T03:01:59;18.40;99.90
25753;DHT22;13600;50.816;4.416;2023-07-31T03:04:26;18.50;99.90
25753;DHT22;13600;50.816;4.416;2023-07-31T03:06:51;18.50;99.90
25753;DHT22;13600;50.816;4.416;2023-07-31T03:09:18;18.50;99.90
25753;DHT22;13600;50.816;4.416;2023-07-31T03:11:44;18.60;99.90
25753;DHT22;13600;50.816;4.416;2023-07-31T03:14:10;18.60;99.90
25753;DHT22;13600;50.816;4.416;2023-07-31T03:16:36;18.60;99.90
25753;DHT22;13600;50.816;4.416;2023-07-31T03:19:01;18.60;99.90
25753;DHT22;13600;50.816;4.416;2023-07-31T03:21:27;18.60;99.90
25753;DHT22;13600;50.816;4.416;2023-07-31T03:23:53;18.60;99.90
25753;DHT22;13600;50.816;4.416;2023-07-31T03:26:18;18.50;99.90
25753;DHT22;13600;50.816;4.416;2023-07-31T03:28:44;18.30;99.90
25753;DHT22;13600;50.816;4.416;2023-07-31T03:31:10;18.20;99.90
25753;DHT22;13600;50.816;4.416;2023-07-31T03:33:37;18.10;99.90
25753;DHT22;13600;50.816;4.416;2023-07-31T03:36:03;18.20;99.90
25753;DHT22;13600;50.816;4.416;2023-07-31T03:38:29;18.40;99.90
25753;DHT22;13600;50.816;4.416;2023-07-31T03:40:54;18.20;99.90
25753;DHT22;13600;50.816;4.416;2023-07-31T03:43:20;18.30;99.90
25753;DHT22;13600;50.816;4.416;2023-07-31T03:45:46;18.40;99.90
25753;DHT22;13600;50.816;4.416;2023-07-31T03:48:11;18.20;99.90
25753;DHT22;13600;50.816;4.416;2023-07-31T03:50:37;18.30;99.90
25753;DHT22;13600;50.816;4.416;2023-07-31T03:53:02;18.20;99.90
25753;DHT22;13600;50.816;4.416;2023-07-31T03:55:28;18.10;99.90
25753;DHT22;13600;50.816;4.416;2023-07-31T03:57:54;18.10;99.90
25753;DHT22;13600;50.816;4.416;2023-07-31T04:00:19;18.00;99.90
25753;DHT22;13600;50.816;4.416;2023-07-31T04:02:46;18.00;99.90
25753;DHT22;13600;50.816;4.416;2023-07-31T04:05:12;17.90;99.90
25753;DHT22;13600;50.816;4.416;2023-07-31T04:07:38;17.80;99.90
25753;DHT22;13600;50.816;4.416;2023-07-31T04:10:05;17.80;99.90
25753;DHT22;13600;50.816;4.416;2023-07-31T04:12:30;17.80;99.90
25753;DHT22;13600;50.816;4.416;2023-07-31T04:14:56;17.70;99.90
25753;DHT22;13600;50.816;4.416;2023-07-31T04:17:21;17.70;99.90
25753;DHT22;13600;50.816;4.416;2023-07-31T04:19:47;17.70;99.90
25753;DHT22;13600;50.816;4.416;2023-07-31T04:22:13;17.80;99.90
25753;DHT22;13600;50.816;4.416;2023-07-31T04:24:39;17.70;99.90
25753;DHT22;13600;50.816;4.416;2023-07-31T04:27:05;17.70;99.90
25753;DHT22;13600;50.816;4.416;2023-07-31T04:29:31;17.70;99.90
25753;DHT22;13600;50.816;4.416;2023-07-31T04:32:00;17.60;99.90
25753;DHT22;13600;50.816;4.416;2023-07-31T04:34:29;17.50;99.90
25753;DHT22;13600;50.816;4.416;2023-07-31T04:36:58;17.50;99.90
25753;DHT22;13600;50.816;4.416;2023-07-31T04:39:23;17.50;99.90
25753;DHT22;13600;50.816;4.416;2023-07-31T04:41:49;17.50;99.90
25753;DHT22;13600;50.816;4.416;2023-07-31T04:44:15;17.60;99.90
25753;DHT22;13600;50.816;4.416;2023-07-31T04:46:41;17.70;99.90
25753;DHT22;13600;50.816;4.416;2023-07-31T04:49:07;17.70;99.90
25753;DHT22;13600;50.816;4.416;2023-07-31T04:51:33;17.80;99.90
25753;DHT22;13600;50.816;4.416;2023-07-31T04:53:58;17.80;99.90
25753;DHT22;13600;50.816;4.416;2023-07-31T04:56:24;17.70;99.90
25753;DHT22;13600;50.816;4.416;2023-07-31T04:58:50;17.70;99.90
25753;DHT22;13600;50.816;4.416;2023-07-31T05:01:15;17.70;99.90
25753;DHT22;13600;50.816;4.416;2023-07-31T05:03:41;17.70;99.90
25753;DHT22;13600;50.816;4.416;2023-07-31T05:06:06;17.70;99.90
25753;DHT22;13600;50.816;4.416;2023-07-31T05:08:32;17.60;99.90
25753;DHT22;13600;50.816;4.416;2023-07-31T05:10:58;17.60;99.90
25753;DHT22;13600;50.816;4.416;2023-07-31T05:13:24;17.50;99.90
25753;DHT22;13600;50.816;4.416;2023-07-31T05:15:50;17.60;99.90
25753;DHT22;13600;50.816;4.416;2023-07-31T05:18:15;17.60;99.90
25753;DHT22;13600;50.816;4.416;2023-07-31T05:20:41;17.50;99.90
25753;DHT22;13600;50.816;4.416;2023-07-31T05:23:06;17.30;99.90
25753;DHT22;13600;50.816;4.416;2023-07-31T05:25:32;17.30;99.90
25753;DHT22;13600;50.816;4.416;2023-07-31T05:27:58;17.30;99.90
25753;DHT22;13600;50.816;4.416;2023-07-31T05:30:23;17.30;99.90
25753;DHT22;13600;50.816;4.416;2023-07-31T05:32:49;17.20;99.90
25753;DHT22;13600;50.816;4.416;2023-07-31T05:35:14;17.30;99.90
25753;DHT22;13600;50.816;4.416;2023-07-31T05:37:40;17.30;99.90
25753;DHT22;13600;50.816;4.416;2023-07-31T05:40:06;17.40;99.90
25753;DHT22;13600;50.816;4.416;2023-07-31T05:42:32;17.40;99.90
25753;DHT22;13600;50.816;4.416;2023-07-31T05:44:57;17.40;99.90
25753;DHT22;13600;50.816;4.416;2023-07-31T05:47:23;17.50;99.90
25753;DHT22;13600;50.816;4.416;2023-07-31T05:49:49;17.40;99.90
25753;DHT22;13600;50.816;4.416;2023-07-31T05:52:18;17.30;99.90
25753;DHT22;13600;50.816;4.416;2023-07-31T05:54:44;17.40;99.90
25753;DHT22;13600;50.816;4.416;2023-07-31T05:57:11;17.30;99.90
25753;DHT22;13600;50.816;4.416;2023-07-31T05:59:37;17.30;99.90
25753;DHT22;13600;50.816;4.416;2023-07-31T06:02:02;17.40;99.90
25753;DHT22;13600;50.816;4.416;2023-07-31T06:04:28;17.40;99.90
25753;DHT22;13600;50.816;4.416;2023-07-31T06:06:53;17.40;99.90
25753;DHT22;13600;50.816;4.416;2023-07-31T06:09:19;17.30;99.90
25753;DHT22;13600;50.816;4.416;2023-07-31T06:11:46;17.30;99.90
25753;DHT22;13600;50.816;4.416;2023-07-31T06:14:12;17.40;99.90
25753;DHT22;13600;50.816;4.416;2023-07-31T06:16:37;17.30;99.90
25753;DHT22;13600;50.816;4.416;2023-07-31T06:19:03;17.40;99.90
25753;DHT22;13600;50.816;4.416;2023-07-31T06:21:29;17.40;99.90
25753;DHT22;13600;50.816;4.416;2023-07-31T06:23:55;17.40;99.90
25753;DHT22;13600;50.816;4.416;2023-07-31T06:26:21;17.40;99.90
25753;DHT22;13600;50.816;4.416;2023-07-31T06:28:46;17.50;99.90
25753;DHT22;13600;50.816;4.416;2023-07-31T06:31:12;17.60;99.90
25753;DHT22;13600;50.816;4.416;2023-07-31T06:33:37;17.60;99.90
25753;DHT22;13600;50.816;4.416;2023-07-31T06:36:03;17.60;99.90
25753;DHT22;13600;50.816;4.416;2023-07-31T06:38:29;17.50;99.90
25753;DHT22;13600;50.816;4.416;2023-07-31T06:40:54;17.60;99.90
25753;DHT22;13600;50.816;4.416;2023-07-31T06:43:20;17.50;99.90
25753;DHT22;13600;50.816;4.416;2023-07-31T06:45:46;17.50;99.90
25753;DHT22;13600;50.816;4.416;2023-07-31T06:48:13;17.50;99.90
25753;DHT22;13600;50.816;4.416;2023-07-31T06:50:39;17.50;99.90
25753;DHT22;13600;50.816;4.416;2023-07-31T06:53:05;17.60;99.90
25753;DHT22;13600;50.816;4.416;2023-07-31T06:55:30;17.50;99.90
25753;DHT22;13600;50.816;4.416;2023-07-31T06:57:56;17.60;99.90
25753;DHT22;13600;50.816;4.416;2023-07-31T07:00:23;17.70;99.90
25753;DHT22;13600;50.816;4.416;2023-07-31T07:02:49;17.80;99.90
25753;DHT22;13600;50.816;4.416;2023-07-31T07:05:15;18.10;99.90
25753;DHT22;13600;50.816;4.416;2023-07-31T07:07:42;18.40;99.90
25753;DHT22;13600;50.816;4.416;2023-07-31T07:10:08;18.70;99.90
25753;DHT22;13600;50.816;4.416;2023-07-31T07:12:34;18.70;99.90
25753;DHT22;13600;50.816;4.416;2023-07-31T07:15:00;18.70;99.90
25753;DHT22;13600;50.816;4.416;2023-07-31T07:17:27;18.70;99.90
25753;DHT22;13600;50.816;4.416;2023-07-31T07:19:53;18.70;99.90
25753;DHT22;13600;50.816;4.416;2023-07-31T07:22:18;18.80;99.90
25753;DHT22;13600;50.816;4.416;2023-07-31T07:24:44;18.90;99.90
25753;DHT22;13600;50.816;4.416;2023-07-31T07:27:10;18.90;99.90
25753;DHT22;13600;50.816;4.416;2023-07-31T07:29:37;19.00;99.90
25753;DHT22;13600;50.816;4.416;2023-07-31T07:32:03;19.00;99.90
25753;DHT22;13600;50.816;4.416;2023-07-31T07:34:29;18.90;99.90
25753;DHT22;13600;50.816;4.416;2023-07-31T07:36:54;18.90;99.90
25753;DHT22;13600;50.816;4.416;2023-07-31T07:39:20;19.00;99.90
25753;DHT22;13600;50.816;4.416;2023-07-31T07:41:46;18.80;99.90
25753;DHT22;13600;50.816;4.416;2023-07-31T07:44:13;18.80;99.90
25753;DHT22;13600;50.816;4.416;2023-07-31T07:46:38;18.80;99.90
25753;DHT22;13600;50.816;4.416;2023-07-31T07:49:04;18.90;99.90
25753;DHT22;13600;50.816;4.416;2023-07-31T07:51:31;18.90;99.90
25753;DHT22;13600;50.816;4.416;2023-07-31T07:53:59;19.00;99.90
25753;DHT22;13600;50.816;4.416;2023-07-31T07:56:26;19.10;99.90
25753;DHT22;13600;50.816;4.416;2023-07-31T07:58:52;19.10;99.90
25753;DHT22;13600;50.816;4.416;2023-07-31T08:01:17;19.00;99.90
25753;DHT22;13600;50.816;4.416;2023-07-31T08:03:43;19.00;99.90
25753;DHT22;13600;50.816;4.416;2023-07-31T08:06:09;19.00;99.90
25753;DHT22;13600;50.816;4.416;2023-07-31T08:08:38;19.10;99.90
25753;DHT22;13600;50.816;4.416;2023-07-31T08:11:04;19.20;99.90
25753;DHT22;13600;50.816;4.416;2023-07-31T08:13:29;19.10;99.90
25753;DHT22;13600;50.816;4.416;2023-07-31T08:15:55;19.00;99.90
25753;DHT22;13600;50.816;4.416;2023-07-31T08:18:21;19.00;99.90
25753;DHT22;13600;50.816;4.416;2023-07-31T08:20:46;19.00;99.90
25753;DHT22;13600;50.816;4.416;2023-07-31T08:23:13;18.80;99.90
25753;DHT22;13600;50.816;4.416;2023-07-31T08:25:39;18.80;99.90
25753;DHT22;13600;50.816;4.416;2023-07-31T08:28:05;18.90;99.90
25753;DHT22;13600;50.816;4.416;2023-07-31T08:30:31;18.70;99.90
25753;DHT22;13600;50.816;4.416;2023-07-31T08:32:59;18.60;99.90
25753;DHT22;13600;50.816;4.416;2023-07-31T08:35:25;18.60;99.90
25753;DHT22;13600;50.816;4.416;2023-07-31T08:37:51;18.80;99.90
25753;DHT22;13600;50.816;4.416;2023-07-31T08:40:16;18.80;99.90
25753;DHT22;13600;50.816;4.416;2023-07-31T08:42:46;18.70;99.90
25753;DHT22;13600;50.816;4.416;2023-07-31T08:45:16;18.70;99.90
25753;DHT22;13600;50.816;4.416;2023-07-31T08:47:45;18.80;99.90
25753;DHT22;13600;50.816;4.416;2023-07-31T08:50:16;18.80;99.90
25753;DHT22;13600;50.816;4.416;2023-07-31T08:52:42;18.90;99.90
25753;DHT22;13600;50.816;4.416;2023-07-31T08:55:08;18.80;99.90
25753;DHT22;13600;50.816;4.416;2023-07-31T08:57:36;18.80;99.90
25753;DHT22;13600;50.816;4.416;2023-07-31T09:00:04;18.80;99.90
25753;DHT22;13600;50.816;4.416;2023-07-31T09:05:02;18.90;99.90
25753;DHT22;13600;50.816;4.416;2023-07-31T09:07:29;18.90;99.90
25753;DHT22;13600;50.816;4.416;2023-07-31T09:09:55;18.90;99.90
25753;DHT22;13600;50.816;4.416;2023-07-31T09:12:21;19.00;99.90
25753;DHT22;13600;50.816;4.416;2023-07-31T09:14:47;19.10;99.90
25753;DHT22;13600;50.816;4.416;2023-07-31T09:17:13;19.30;99.90
25753;DHT22;13600;50.816;4.416;2023-07-31T09:19:38;19.40;99.90
25753;DHT22;13600;50.816;4.416;2023-07-31T09:22:05;19.50;99.90
25753;DHT22;13600;50.816;4.416;2023-07-31T09:24:32;19.80;99.90
25753;DHT22;13600;50.816;4.416;2023-07-31T09:26:59;19.70;99.90
25753;DHT22;13600;50.816;4.416;2023-07-31T09:29:25;19.70;99.90
25753;DHT22;13600;50.816;4.416;2023-07-31T09:31:52;19.60;99.90
25753;DHT22;13600;50.816;4.416;2023-07-31T09:34:18;19.80;99.90
25753;DHT22;13600;50.816;4.416;2023-07-31T09:36:50;19.80;99.90
25753;DHT22;13600;50.816;4.416;2023-07-31T09:39:17;19.70;99.90
25753;DHT22;13600;50.816;4.416;2023-07-31T09:41:47;19.50;99.90
25753;DHT22;13600;50.816;4.416;2023-07-31T09:44:13;19.50;99.90
25753;DHT22;13600;50.816;4.416;2023-07-31T09:46:39;19.30;99.90
25753;DHT22;13600;50.816;4.416;2023-07-31T09:51:31;19.30;99.90
25753;DHT22;13600;50.816;4.416;2023-07-31T09:53:57;19.40;99.90
25753;DHT22;13600;50.816;4.416;2023-07-31T09:56:23;19.40;99.90
25753;DHT22;13600;50.816;4.416;2023-07-31T09:58:49;19.50;99.90
25753;DHT22;13600;50.816;4.416;2023-07-31T10:01:15;19.50;99.90
25753;DHT22;13600;50.816;4.416;2023-07-31T10:03:42;19.40;99.90
25753;DHT22;13600;50.816;4.416;2023-07-31T10:06:09;19.50;99.90
25753;DHT22;13600;50.816;4.416;2023-07-31T10:08:36;19.20;99.90
25753;DHT22;13600;50.816;4.416;2023-07-31T10:11:03;19.20;99.90
25753;DHT22;13600;50.816;4.416;2023-07-31T10:13:30;19.10;99.90
25753;DHT22;13600;50.816;4.416;2023-07-31T10:15:58;19.10;99.90
25753;DHT22;13600;50.816;4.416;2023-07-31T10:18:25;19.30;99.90
25753;DHT22;13600;50.816;4.416;2023-07-31T10:20:53;19.40;99.90
25753;DHT22;13600;50.816;4.416;2023-07-31T10:23:20;19.70;99.90
25753;DHT22;13600;50.816;4.416;2023-07-31T10:25:46;20.00;99.90
25753;DHT22;13600;50.816;4.416;2023-07-31T10:28:12;20.30;99.90
25753;DHT22;13600;50.816;4.416;2023-07-31T10:30:39;20.50;99.90
25753;DHT22;13600;50.816;4.416;2023-07-31T10:33:05;20.90;99.90
25753;DHT22;13600;50.816;4.416;2023-07-31T10:35:31;21.10;99.90
25753;DHT22;13600;50.816;4.416;2023-07-31T10:38:11;21.20;99.90
25753;DHT22;13600;50.816;4.416;2023-07-31T10:40:37;21.00;99.90
25753;DHT22;13600;50.816;4.416;2023-07-31T10:43:03;21.00;99.90
25753;DHT22;13600;50.816;4.416;2023-07-31T10:45:39;20.90;99.90
25753;DHT22;13600;50.816;4.416;2023-07-31T10:48:15;20.90;99.90
25753;DHT22;13600;50.816;4.416;2023-07-31T10:50:50;20.80;99.90
25753;DHT22;13600;50.816;4.416;2023-07-31T10:53:24;20.80;99.90
25753;DHT22;13600;50.816;4.416;2023-07-31T10:55:50;20.70;99.90
25753;DHT22;13600;50.816;4.416;2023-07-31T10:58:19;20.70;99.90
25753;DHT22;13600;50.816;4.416;2023-07-31T11:00:45;20.70;99.90
25753;DHT22;13600;50.816;4.416;2023-07-31T11:03:14;20.80;99.90
25753;DHT22;13600;50.816;4.416;2023-07-31T11:06:00;20.90;99.90
25753;DHT22;13600;50.816;4.416;2023-07-31T11:08:30;20.80;99.90
25753;DHT22;13600;50.816;4.416;2023-07-31T11:16:06;20.90;99.90
25753;DHT22;13600;50.816;4.416;2023-07-31T11:18:31;21.10;99.90
25753;DHT22;13600;50.816;4.416;2023-07-31T11:20:57;21.10;99.90
25753;DHT22;13600;50.816;4.416;2023-07-31T11:23:23;21.30;99.90
25753;DHT22;13600;50.816;4.416;2023-07-31T11:25:49;21.30;99.90
25753;DHT22;13600;50.816;4.416;2023-07-31T11:28:16;21.10;99.90
25753;DHT22;13600;50.816;4.416;2023-07-31T11:30:43;21.10;99.90
25753;DHT22;13600;50.816;4.416;2023-07-31T11:33:10;20.90;99.90
25753;DHT22;13600;50.816;4.416;2023-07-31T11:35:43;20.80;99.90
25753;DHT22;13600;50.816;4.416;2023-07-31T11:38:11;20.80;99.90
25753;DHT22;13600;50.816;4.416;2023-07-31T11:40:44;20.80;99.90
25753;DHT22;13600;50.816;4.416;2023-07-31T11:43:10;21.10;99.90
25753;DHT22;13600;50.816;4.416;2023-07-31T11:45:37;21.10;99.90
25753;DHT22;13600;50.816;4.416;2023-07-31T11:48:03;21.10;99.90
25753;DHT22;13600;50.816;4.416;2023-07-31T11:50:33;21.30;99.90
25753;DHT22;13600;50.816;4.416;2023-07-31T11:53:05;21.10;99.90
25753;DHT22;13600;50.816;4.416;2023-07-31T11:55:33;21.10;99.90
25753;DHT22;13600;50.816;4.416;2023-07-31T11:57:59;21.10;99.90
25753;DHT22;13600;50.816;4.416;2023-07-31T12:00:26;21.10;99.90
25753;DHT22;13600;50.816;4.416;2023-07-31T12:02:53;21.10;99.90
25753;DHT22;13600;50.816;4.416;2023-07-31T12:05:19;21.20;99.90
25753;DHT22;13600;50.816;4.416;2023-07-31T12:07:53;21.40;99.90
25753;DHT22;13600;50.816;4.416;2023-07-31T12:10:30;21.70;99.90
25753;DHT22;13600;50.816;4.416;2023-07-31T12:13:08;22.00;99.90
25753;DHT22;13600;50.816;4.416;2023-07-31T12:18:11;22.10;99.90
25753;DHT22;13600;50.816;4.416;2023-07-31T12:23:07;21.70;99.90
25753;DHT22;13600;50.816;4.416;2023-07-31T12:25:33;21.70;99.90
25753;DHT22;13600;50.816;4.416;2023-07-31T12:28:08;21.80;99.90
25753;DHT22;13600;50.816;4.416;2023-07-31T12:30:38;22.00;99.90
25753;DHT22;13600;50.816;4.416;2023-07-31T12:33:06;21.90;99.90
25753;DHT22;13600;50.816;4.416;2023-07-31T12:35:40;21.70;99.90
25753;DHT22;13600;50.816;4.416;2023-07-31T12:38:05;21.60;99.90
25753;DHT22;13600;50.816;4.416;2023-07-31T12:40:32;21.50;99.90
25753;DHT22;13600;50.816;4.416;2023-07-31T12:42:57;21.50;99.90
25753;DHT22;13600;50.816;4.416;2023-07-31T12:45:23;21.50;99.90
25753;DHT22;13600;50.816;4.416;2023-07-31T12:47:49;21.60;99.90
25753;DHT22;13600;50.816;4.416;2023-07-31T12:50:15;21.60;99.90
25753;DHT22;13600;50.816;4.416;2023-07-31T12:52:41;21.80;99.90
25753;DHT22;13600;50.816;4.416;2023-07-31T12:55:07;21.90;99.90
25753;DHT22;13600;50.816;4.416;2023-07-31T12:57:32;22.00;99.90
25753;DHT22;13600;50.816;4.416;2023-07-31T12:59:58;21.70;99.90
25753;DHT22;13600;50.816;4.416;2023-07-31T13:02:24;21.40;99.90
25753;DHT22;13600;50.816;4.416;2023-07-31T13:04:50;21.20;99.90
25753;DHT22;13600;50.816;4.416;2023-07-31T13:07:15;21.00;99.90
25753;DHT22;13600;50.816;4.416;2023-07-31T13:09:41;20.90;99.90
25753;DHT22;13600;50.816;4.416;2023-07-31T13:12:07;20.90;99.90
25753;DHT22;13600;50.816;4.416;2023-07-31T13:14:32;20.90;99.90
25753;DHT22;13600;50.816;4.416;2023-07-31T13:16:58;20.70;99.90
25753;DHT22;13600;50.816;4.416;2023-07-31T13:19:24;20.50;99.90
25753;DHT22;13600;50.816;4.416;2023-07-31T13:21:49;20.60;99.90
25753;DHT22;13600;50.816;4.416;2023-07-31T13:24:15;20.50;99.90
25753;DHT22;13600;50.816;4.416;2023-07-31T13:26:41;20.30;99.90
25753;DHT22;13600;50.816;4.416;2023-07-31T13:29:06;20.20;99.90
25753;DHT22;13600;50.816;4.416;2023-07-31T13:31:33;20.20;99.90
25753;DHT22;13600;50.816;4.416;2023-07-31T13:33:58;20.10;99.90
25753;DHT22;13600;50.816;4.416;2023-07-31T13:36:25;20.10;99.90
25753;DHT22;13600;50.816;4.416;2023-07-31T13:38:51;19.80;99.90
25753;DHT22;13600;50.816;4.416;2023-07-31T13:41:16;19.70;99.90
25753;DHT22;13600;50.816;4.416;2023-07-31T13:43:42;19.50;99.90
25753;DHT22;13600;50.816;4.416;2023-07-31T13:46:07;19.50;99.90
25753;DHT22;13600;50.816;4.416;2023-07-31T13:48:35;19.30;99.90
25753;DHT22;13600;50.816;4.416;2023-07-31T13:51:01;19.30;99.90
25753;DHT22;13600;50.816;4.416;2023-07-31T13:53:27;19.30;99.90
25753;DHT22;13600;50.816;4.416;2023-07-31T13:55:52;19.30;99.90
25753;DHT22;13600;50.816;4.416;2023-07-31T13:58:18;19.20;99.90
25753;DHT22;13600;50.816;4.416;2023-07-31T14:00:43;19.00;99.90
25753;DHT22;13600;50.816;4.416;2023-07-31T14:03:09;19.00;99.90
25753;DHT22;13600;50.816;4.416;2023-07-31T14:05:35;19.10;99.90
25753;DHT22;13600;50.816;4.416;2023-07-31T14:08:00;19.30;99.90
25753;DHT22;13600;50.816;4.416;2023-07-31T14:10:26;19.10;99.90
25753;DHT22;13600;50.816;4.416;2023-07-31T14:12:52;19.10;99.90
25753;DHT22;13600;50.816;4.416;2023-07-31T14:15:18;18.90;99.90
25753;DHT22;13600;50.816;4.416;2023-07-31T14:17:44;18.80;99.90
25753;DHT22;13600;50.816;4.416;2023-07-31T14:20:11;18.80;99.90
25753;DHT22;13600;50.816;4.416;2023-07-31T14:22:37;18.80;99.90
25753;DHT22;13600;50.816;4.416;2023-07-31T14:25:03;18.90;99.90
25753;DHT22;13600;50.816;4.416;2023-07-31T14:27:29;19.00;99.90
25753;DHT22;13600;50.816;4.416;2023-07-31T14:29:54;19.00;99.90
25753;DHT22;13600;50.816;4.416;2023-07-31T14:32:21;19.00;99.90
25753;DHT22;13600;50.816;4.416;2023-07-31T14:34:48;19.20;99.90
25753;DHT22;13600;50.816;4.416;2023-07-31T14:37:14;19.30;99.90
25753;DHT22;13600;50.816;4.416;2023-07-31T14:39:40;19.30;99.90
25753;DHT22;13600;50.816;4.416;2023-07-31T14:42:05;19.30;99.90
25753;DHT22;13600;50.816;4.416;2023-07-31T14:44:31;19.20;99.90
25753;DHT22;13600;50.816;4.416;2023-07-31T14:46:56;19.10;99.90
25753;DHT22;13600;50.816;4.416;2023-07-31T14:49:22;19.30;99.90
25753;DHT22;13600;50.816;4.416;2023-07-31T14:51:49;19.40;99.90
25753;DHT22;13600;50.816;4.416;2023-07-31T14:54:14;19.40;99.90
25753;DHT22;13600;50.816;4.416;2023-07-31T14:56:40;19.30;99.90
25753;DHT22;13600;50.816;4.416;2023-07-31T14:59:05;19.30;99.90
25753;DHT22;13600;50.816;4.416;2023-07-31T15:01:33;19.10;99.90
25753;DHT22;13600;50.816;4.416;2023-07-31T15:03:59;19.10;99.90
25753;DHT22;13600;50.816;4.416;2023-07-31T15:06:24;19.10;99.90
25753;DHT22;13600;50.816;4.416;2023-07-31T15:08:50;19.20;99.90
25753;DHT22;13600;50.816;4.416;2023-07-31T15:11:15;19.20;99.90
25753;DHT22;13600;50.816;4.416;2023-07-31T15:13:41;19.20;99.90
25753;DHT22;13600;50.816;4.416;2023-07-31T15:16:07;19.10;99.90
25753;DHT22;13600;50.816;4.416;2023-07-31T15:18:32;19.00;99.90
25753;DHT22;13600;50.816;4.416;2023-07-31T15:20:59;18.90;99.90
25753;DHT22;13600;50.816;4.416;2023-07-31T15:23:24;18.90;99.90
25753;DHT22;13600;50.816;4.416;2023-07-31T15:25:51;18.90;99.90
25753;DHT22;13600;50.816;4.416;2023-07-31T15:28:18;18.90;99.90
25753;DHT22;13600;50.816;4.416;2023-07-31T15:30:43;19.00;99.90
25753;DHT22;13600;50.816;4.416;2023-07-31T15:33:10;18.90;99.90
25753;DHT22;13600;50.816;4.416;2023-07-31T15:35:36;19.00;99.90
25753;DHT22;13600;50.816;4.416;2023-07-31T15:38:01;19.00;99.90
25753;DHT22;13600;50.816;4.416;2023-07-31T15:40:27;19.00;99.90
25753;DHT22;13600;50.816;4.416;2023-07-31T15:42:53;18.90;99.90
25753;DHT22;13600;50.816;4.416;2023-07-31T15:45:18;18.80;99.90
25753;DHT22;13600;50.816;4.416;2023-07-31T15:47:44;18.70;99.90
25753;DHT22;13600;50.816;4.416;2023-07-31T15:50:10;18.80;99.90
25753;DHT22;13600;50.816;4.416;2023-07-31T15:52:35;18.80;99.90
25753;DHT22;13600;50.816;4.416;2023-07-31T15:55:01;18.70;99.90
25753;DHT22;13600;50.816;4.416;2023-07-31T15:57:27;18.60;99.90
25753;DHT22;13600;50.816;4.416;2023-07-31T15:59:53;18.50;99.90
25753;DHT22;13600;50.816;4.416;2023-07-31T16:02:18;18.50;99.90
25753;DHT22;13600;50.816;4.416;2023-07-31T16:04:44;18.50;99.90
25753;DHT22;13600;50.816;4.416;2023-07-31T16:07:09;18.60;99.90
25753;DHT22;13600;50.816;4.416;2023-07-31T16:09:37;18.60;99.90
25753;DHT22;13600;50.816;4.416;2023-07-31T16:12:02;18.70;99.90
25753;DHT22;13600;50.816;4.416;2023-07-31T16:14:28;18.50;99.90
25753;DHT22;13600;50.816;4.416;2023-07-31T16:16:54;18.50;99.90
25753;DHT22;13600;50.816;4.416;2023-07-31T16:19:20;18.50;99.90
25753;DHT22;13600;50.816;4.416;2023-07-31T16:21:45;18.50;99.90
25753;DHT22;13600;50.816;4.416;2023-07-31T16:24:11;18.60;99.90
25753;DHT22;13600;50.816;4.416;2023-07-31T16:26:36;18.70;99.90
25753;DHT22;13600;50.816;4.416;2023-07-31T16:29:02;18.60;99.90
25753;DHT22;13600;50.816;4.416;2023-07-31T16:31:28;18.60;99.90
25753;DHT22;13600;50.816;4.416;2023-07-31T16:33:53;18.70;99.90
25753;DHT22;13600;50.816;4.416;2023-07-31T16:36:19;18.60;99.90